Pridgen, Georgia
Current Conditions -  °F | °C
As of 11:35 AM on Wednesday 26 Nov 2014 (Local Time) from KDQH Reporting Station
Scattered Clouds Scattered Clouds  
Wind Chill: 57°   Ceiling: Unl
Heat Index: 57°   Visibility: 10mi
Dew Point: 45°   Wind: 12mph
Humidity: 63%   Direction: 290°WNW
Pressure: 30.14"   Gusts: NA
Location:  31.6888°N, 82.911°W
Report Text: KDQH 261635Z AUTO 29010KT 10SM SCT023 14/07 A3014 RMK AO2
Loading
Personal Weather Stations






























Interactive Weather Map New forecast layout! Learn more

10-Day Weather Forecast

Advertisements
Track Severe Weather on mobile